Time;durP1;ratioP1;P1;durP2;ratioP2;P2;SDS_P1;SDS_P2;PMS_P1;PMS_P2;Temp;Humidity;BMP_temperature;BMP_pressure;BME280_temperature;BME280_humidity;BME280_pressure;Samples;Min_cycle;Max_cycle;Signal;HPM_P1;HPM_P2
2024/02/17 00:00:23;;;;;;;18.40;10.80;;;;;;;-1.76;100.00;102248.55;105884;1256;60287;-84
2024/02/17 00:02:51;;;;;;;22.70;15.00;;;;;;;-1.81;100.00;102248.98;106074;1249;71916;-84
2024/02/17 00:05:18;;;;;;;21.20;11.20;;;;;;;-1.82;100.00;102253.05;106124;1254;63897;-81
2024/02/17 00:07:45;;;;;;;17.40;10.20;;;;;;;-1.83;100.00;102252.54;106037;1251;71511;-83
2024/02/17 00:10:12;;;;;;;20.70;10.40;;;;;;;-1.82;100.00;102253.94;106042;1249;62065;-83
2024/02/17 00:12:40;;;;;;;20.30;11.00;;;;;;;-1.81;100.00;102256.67;106002;1251;60474;-82
2024/02/17 00:15:08;;;;;;;18.40;11.20;;;;;;;-1.79;100.00;102254.84;106110;1249;73044;-81
2024/02/17 00:17:36;;;;;;;19.20;11.00;;;;;;;-1.77;100.00;102255.91;106018;1253;63838;-83
2024/02/17 00:20:04;;;;;;;19.20;12.50;;;;;;;-1.71;100.00;102255.33;106007;1254;72666;-82
2024/02/17 00:22:32;;;;;;;21.30;11.50;;;;;;;-1.64;100.00;102257.32;106095;1251;60914;-83
2024/02/17 00:24:59;;;;;;;22.30;12.10;;;;;;;-1.61;100.00;102256.17;106356;1253;59506;-80
2024/02/17 00:27:26;;;;;;;21.70;11.30;;;;;;;-1.60;100.00;102259.80;106139;1251;73071;-83
2024/02/17 00:29:57;;;;;;;16.60;10.00;;;;;;;-1.61;100.00;102259.95;105995;1257;63646;-81
2024/02/17 00:32:25;;;;;;;15.20;9.20;;;;;;;-1.64;100.00;102265.21;106030;1251;71692;-81
2024/02/17 00:34:52;;;;;;;19.80;10.30;;;;;;;-1.68;100.00;102261.72;106047;1254;61194;-81
2024/02/17 00:37:19;;;;;;;16.60;10.20;;;;;;;-1.71;100.00;102267.15;106078;1254;59860;-81
2024/02/17 00:39:46;;;;;;;15.00;8.20;;;;;;;-1.71;100.00;102266.64;106018;1251;73138;-82
2024/02/17 00:42:13;;;;;;;18.30;9.80;;;;;;;-1.76;100.00;102263.98;106065;1254;62310;-81
2024/02/17 00:44:42;;;;;;;16.70;9.30;;;;;;;-1.82;100.00;102265.92;106121;1253;71396;-80
2024/02/17 00:47:09;;;;;;;17.60;11.40;;;;;;;-1.86;100.00;102267.75;106112;1253;61200;-82
2024/02/17 00:49:36;;;;;;;16.60;10.40;;;;;;;-1.88;100.00;102265.30;106126;1251;60215;-82
2024/02/17 00:52:03;;;;;;;20.30;9.30;;;;;;;-1.94;100.00;102260.05;106105;1251;71631;-82
2024/02/17 00:54:30;;;;;;;18.20;9.10;;;;;;;-2.03;100.00;102254.42;106098;1253;64067;-81
2024/02/17 00:56:57;;;;;;;15.80;8.60;;;;;;;-2.11;100.00;102250.16;106122;1251;72734;-83
2024/02/17 00:59:25;;;;;;;20.00;10.30;;;;;;;-2.17;100.00;102251.92;106099;1254;60298;-83
2024/02/17 01:01:51;;;;;;;16.70;9.00;;;;;;;-2.25;100.00;102253.48;106270;1254;59720;-83
2024/02/17 01:04:19;;;;;;;17.50;10.00;;;;;;;-2.31;100.00;102251.48;106205;1254;73624;-82
2024/02/17 01:06:46;;;;;;;16.40;10.60;;;;;;;-2.35;100.00;102248.15;105947;1256;63826;-81
2024/02/17 01:09:13;;;;;;;16.30;8.70;;;;;;;-2.35;100.00;102243.88;106116;1254;72632;-83
2024/02/17 01:11:40;;;;;;;19.90;9.60;;;;;;;-2.36;100.00;102240.25;106088;1250;61883;-81
2024/02/17 01:14:07;;;;;;;13.00;8.40;;;;;;;-2.39;100.00;102236.24;106039;1253;59509;-83
2024/02/17 01:16:34;;;;;;;14.20;8.90;;;;;;;-2.42;100.00;102236.87;106043;1251;73022;-82
2024/02/17 01:19:01;;;;;;;16.20;10.30;;;;;;;-2.45;100.00;102240.59;106035;1251;62281;-81
2024/02/17 01:21:31;;;;;;;14.60;8.40;;;;;;;-2.46;100.00;102242.09;106041;1251;73085;-82
2024/02/17 01:23:58;;;;;;;14.80;10.10;;;;;;;-2.46;100.00;102241.08;106233;1254;59624;-82
2024/02/17 01:26:27;;;;;;;16.70;8.30;;;;;;;-2.44;100.00;102238.05;106701;1250;59545;-80
2024/02/17 01:28:54;;;;;;;16.70;9.10;;;;;;;-2.41;100.00;102240.15;107036;1250;72946;-80
2024/02/17 01:31:22;;;;;;;26.70;11.00;;;;;;;-2.37;100.00;102242.81;106363;1251;62247;-81
2024/02/17 01:33:51;;;;;;;20.10;9.20;;;;;;;-2.34;100.00;102243.88;106114;1251;71168;-82
2024/02/17 01:36:19;;;;;;;14.80;9.00;;;;;;;-2.33;100.00;102245.30;106114;1254;60523;-83
2024/02/17 01:38:46;;;;;;;19.30;10.40;;;;;;;-2.30;100.00;102248.08;106098;1254;59663;-81
2024/02/17 01:41:13;;;;;;;16.60;8.00;;;;;;;-2.26;100.00;102248.49;106092;1251;72907;-83
2024/02/17 01:43:40;;;;;;;20.70;9.50;;;;;;;-2.21;100.00;102248.77;105947;1252;63737;-82
2024/02/17 01:46:07;;;;;;;17.30;9.20;;;;;;;-2.15;100.00;102249.05;106052;1254;71446;-81
2024/02/17 01:48:35;;;;;;;19.30;9.50;;;;;;;-2.12;100.00;102244.82;105877;1257;61907;-83
2024/02/17 01:51:04;;;;;;;20.10;9.20;;;;;;;-2.14;100.00;102245.99;106135;1250;60093;-82
2024/02/17 01:53:31;;;;;;;18.40;10.00;;;;;;;-2.12;100.00;102250.83;106162;1251;71729;-84
2024/02/17 01:55:58;;;;;;;18.70;9.60;;;;;;;-2.12;100.00;102242.60;106018;1251;63897;-82
2024/02/17 01:58:25;;;;;;;17.30;8.50;;;;;;;-2.14;100.00;102238.96;105838;1256;71225;-83
2024/02/17 02:00:52;;;;;;;18.20;10.80;;;;;;;-2.18;100.00;102241.47;106138;1253;59736;-83
2024/02/17 02:03:19;;;;;;;21.60;11.10;;;;;;;-2.19;100.00;102247.27;105819;1250;59739;-83
2024/02/17 02:05:47;;;;;;;17.30;8.60;;;;;;;-2.18;100.00;102248.31;105943;1250;71772;-84
2024/02/17 02:08:14;;;;;;;14.60;9.10;;;;;;;-2.18;100.00;102244.90;106138;1250;63827;-81
2024/02/17 02:10:41;;;;;;;32.20;11.10;;;;;;;-2.21;100.00;102244.66;105824;1251;73245;-82
2024/02/17 02:13:08;;;;;;;18.40;9.70;;;;;;;-2.23;100.00;102245.81;106130;1250;61750;-81
2024/02/17 02:15:43;;;;;;;15.90;9.10;;;;;;;-2.24;100.00;102246.14;106095;1254;60203;-83
2024/02/17 02:18:21;;;;;;;15.80;9.40;;;;;;;-2.30;100.00;102243.98;106041;1253;72034;-83
2024/02/17 02:20:49;;;;;;;21.90;9.60;;;;;;;-2.33;100.00;102244.25;106053;1251;61653;-83
2024/02/17 02:23:16;;;;;;;16.50;8.80;;;;;;;-2.33;100.00;102243.56;106022;1251;72637;-84
2024/02/17 02:25:51;;;;;;;15.70;10.30;;;;;;;-2.34;100.00;102242.88;106073;1254;60458;-84
2024/02/17 02:28:18;;;;;;;;;;;;;;;-2.32;100.00;102244.10;106038;1250;60465;-82
2024/02/17 02:30:45;;;;;;;21.60;9.30;;;;;;;-2.29;100.00;102241.76;105945;1251;73934;-82
2024/02/17 02:33:12;;;;;;;18.50;9.60;;;;;;;-2.30;100.00;102240.54;105944;1253;63730;-83
2024/02/17 02:35:38;;;;;;;20.50;9.70;;;;;;;-2.36;100.00;102244.89;105940;1251;72522;-82
2024/02/17 02:38:06;;;;;;;22.40;9.80;;;;;;;-2.37;100.00;102241.95;106167;1253;60434;-83
2024/02/17 02:40:33;;;;;;;17.70;9.10;;;;;;;-2.37;100.00;102244.35;106055;1251;60475;-83
2024/02/17 02:43:00;;;;;;;21.10;10.50;;;;;;;-2.41;100.00;102246.48;106106;1254;73811;-83
2024/02/17 02:45:30;;;;;;;15.60;9.10;;;;;;;-2.46;100.00;102249.49;106090;1253;63798;-83
2024/02/17 02:47:58;;;;;;;17.40;9.50;;;;;;;-2.47;100.00;102245.02;106172;1254;72453;-84
2024/02/17 02:50:25;;;;;;;19.10;9.50;;;;;;;-2.48;100.00;102245.66;106028;1253;61952;-82
2024/02/17 02:52:52;;;;;;;21.60;10.50;;;;;;;-2.53;100.00;102243.87;106106;1254;60525;-83
2024/02/17 02:55:20;;;;;;;16.90;10.20;;;;;;;-2.56;100.00;102243.96;105956;1249;73563;-83
2024/02/17 02:57:47;;;;;;;21.40;9.80;;;;;;;-2.60;100.00;102242.52;106048;1253;63560;-84
2024/02/17 03:00:14;;;;;;;21.60;10.10;;;;;;;-2.61;100.00;102240.45;106030;1251;72736;-83
2024/02/17 03:02:41;;;;;;;16.50;9.30;;;;;;;-2.59;100.00;102239.12;105971;1254;61862;-82
2024/02/17 03:05:09;;;;;;;17.00;9.80;;;;;;;-2.59;100.00;102238.95;106109;1254;60332;-81
2024/02/17 03:07:36;;;;;;;15.00;10.00;;;;;;;-2.63;100.00;102240.05;106037;1251;73846;-82
2024/02/17 03:10:03;;;;;;;15.10;10.10;;;;;;;-2.63;100.00;102244.68;106248;1254;63948;-84
2024/02/17 03:12:31;;;;;;;21.70;10.40;;;;;;;-2.65;100.00;102246.02;106474;1250;71122;-82
2024/02/17 03:15:01;;;;;;;19.10;10.20;;;;;;;-2.66;100.00;102247.35;106970;1249;60701;-81
2024/02/17 03:17:29;;;;;;;22.90;11.80;;;;;;;-2.67;100.00;102244.77;106384;1250;60472;-83
2024/02/17 03:19:56;;;;;;;21.30;11.50;;;;;;;-2.65;100.00;102242.59;106363;1250;72894;-80
2024/02/17 03:22:23;;;;;;;17.40;10.90;;;;;;;-2.61;100.00;102241.13;106558;1254;62438;-81
2024/02/17 03:24:51;;;;;;;17.50;10.80;;;;;;;-2.59;100.00;102245.63;106399;1251;72683;-82
2024/02/17 03:27:18;;;;;;;20.30;11.10;;;;;;;-2.62;100.00;102248.81;107114;1251;61782;-82
2024/02/17 03:29:44;;;;;;;24.10;11.20;;;;;;;-2.65;100.00;102247.73;107545;1250;60386;-81
2024/02/17 03:32:11;;;;;;;18.80;10.30;;;;;;;-2.66;100.00;102244.64;108617;1249;73883;-79
2024/02/17 03:34:38;;;;;;;22.20;11.10;;;;;;;-2.65;100.00;102241.05;109360;1251;62607;-82
2024/02/17 03:37:06;;;;;;;20.30;9.60;;;;;;;-2.68;100.00;102239.27;108856;1250;71437;-80
2024/02/17 03:39:34;;;;;;;16.70;8.90;;;;;;;-2.74;100.00;102233.00;106376;1253;61772;-82
2024/02/17 03:42:01;;;;;;;18.00;9.40;;;;;;;-2.78;100.00;102232.58;106632;1250;60424;-81
2024/02/17 03:44:29;;;;;;;19.60;10.60;;;;;;;-2.82;100.00;102238.48;106139;1251;73712;-82
2024/02/17 03:46:56;;;;;;;24.50;10.30;;;;;;;-2.85;100.00;102240.45;106972;1250;62308;-81
2024/02/17 03:49:24;;;;;;;19.10;10.10;;;;;;;-2.91;100.00;102237.08;107984;1249;72727;-81
2024/02/17 03:51:52;;;;;;;22.70;11.20;;;;;;;-2.96;100.00;102238.52;107120;1253;60601;-79
2024/02/17 03:54:19;;;;;;;21.30;10.40;;;;;;;-2.95;100.00;102240.42;106968;1250;60534;-80
2024/02/17 03:56:47;;;;;;;19.20;10.10;;;;;;;-2.91;100.00;102238.45;108024;1251;73700;-82
2024/02/17 03:59:14;;;;;;;19.20;11.60;;;;;;;-2.88;100.00;102239.20;109107;1250;62608;-80
2024/02/17 04:01:41;;;;;;;21.20;11.00;;;;;;;-2.84;100.00;102242.70;109618;1249;71300;-82
2024/02/17 04:04:09;;;;;;;19.30;10.70;;;;;;;-2.82;100.00;102246.34;109653;1250;60920;-80
2024/02/17 04:06:38;;;;;;;15.10;8.90;;;;;;;-2.90;100.00;102249.77;109735;1250;59413;-81
2024/02/17 04:09:06;;;;;;;22.20;9.90;;;;;;;-3.00;100.00;102246.45;109652;1250;72406;-82
2024/02/17 04:11:34;;;;;;;14.90;8.90;;;;;;;-3.10;100.00;102251.71;109004;1250;62497;-81
2024/02/17 04:14:01;;;;;;;20.30;10.00;;;;;;;-3.18;100.00;102243.15;108141;1250;71340;-81
2024/02/17 04:16:29;;;;;;;19.80;8.50;;;;;;;-3.28;100.00;102246.18;107731;1254;61995;-82
2024/02/17 04:18:56;;;;;;;15.70;8.40;;;;;;;-3.34;100.00;102246.54;107232;1251;60577;-81
2024/02/17 04:21:24;;;;;;;22.00;9.00;;;;;;;-3.40;100.00;102249.48;107480;1253;73501;-82
2024/02/17 04:23:51;;;;;;;13.20;7.80;;;;;;;-3.42;100.00;102257.14;107497;1250;63767;-81
2024/02/17 04:26:19;;;;;;;17.30;8.50;;;;;;;-3.38;100.00;102259.45;107439;1249;71136;-82
2024/02/17 04:28:46;;;;;;;15.60;7.90;;;;;;;-3.35;100.00;102257.30;106898;1254;61720;-82
2024/02/17 04:31:14;;;;;;;13.30;6.60;;;;;;;-3.33;100.00;102259.89;106802;1251;60462;-82
2024/02/17 04:33:41;;;;;;;13.50;7.40;;;;;;;-3.30;100.00;102264.78;106445;1249;73717;-82
2024/02/17 04:36:09;;;;;;;20.60;7.20;;;;;;;-3.27;100.00;102270.98;106266;1254;63753;-82
2024/02/17 04:38:36;;;;;;;14.50;7.00;;;;;;;-3.27;100.00;102269.27;107190;1251;72677;-81
2024/02/17 04:41:03;;;;;;;16.80;6.80;;;;;;;-3.27;100.00;102272.88;107137;1254;61800;-82
2024/02/17 04:43:30;;;;;;;12.90;7.20;;;;;;;-3.26;100.00;102273.57;107030;1251;60386;-82
2024/02/17 04:45:57;;;;;;;14.00;7.00;;;;;;;-3.26;100.00;102276.98;106197;1253;73733;-83
2024/02/17 04:48:24;;;;;;;14.50;6.80;;;;;;;-3.23;100.00;102286.31;106376;1251;62306;-82
2024/02/17 04:50:52;;;;;;;18.30;7.50;;;;;;;-3.19;100.00;102295.30;106731;1251;72569;-80
2024/02/17 04:53:19;;;;;;;13.60;6.40;;;;;;;-3.23;100.00;102303.23;106364;1250;60553;-82
2024/02/17 04:55:50;;;;;;;13.90;7.30;;;;;;;-3.31;100.00;102311.60;106438;1250;60546;-81
2024/02/17 04:58:18;;;;;;;10.00;7.50;;;;;;;-3.39;100.00;102314.99;106077;1253;73701;-83
2024/02/17 05:00:48;;;;;;;17.00;8.90;;;;;;;-3.43;100.00;102323.11;105887;1256;63917;-81
2024/02/17 05:03:15;;;;;;;17.30;8.10;;;;;;;-3.45;100.00;102326.98;106085;1251;71622;-84
2024/02/17 05:05:43;;;;;;;10.10;6.00;;;;;;;-3.48;100.00;102323.66;105977;1256;61988;-83
2024/02/17 05:08:10;;;;;;;11.60;6.40;;;;;;;-3.54;100.00;102322.14;106175;1251;61118;-82
2024/02/17 05:10:37;;;;;;;8.70;5.60;;;;;;;-3.59;100.00;102313.97;106414;1249;72415;-82
2024/02/17 05:13:04;;;;;;;10.20;6.00;;;;;;;-3.64;100.00;102316.40;106342;1250;62247;-81
2024/02/17 05:15:31;;;;;;;12.40;5.90;;;;;;;-3.66;100.00;102312.61;106544;1254;72523;-82
2024/02/17 05:17:58;;;;;;;13.40;7.00;;;;;;;-3.68;100.00;102310.30;106166;1253;61956;-83
2024/02/17 05:20:26;;;;;;;13.90;6.50;;;;;;;-3.72;100.00;102306.65;106062;1251;61228;-82
2024/02/17 05:22:55;;;;;;;17.80;8.60;;;;;;;-3.77;100.00;102304.80;106377;1251;72679;-82
2024/02/17 05:25:22;;;;;;;16.30;9.20;;;;;;;-3.80;100.00;102297.54;106283;1253;63917;-84
2024/02/17 05:27:49;;;;;;;14.20;8.00;;;;;;;-3.83;100.00;102293.35;106222;1254;73337;-83
2024/02/17 05:30:17;;;;;;;16.00;7.10;;;;;;;-3.87;100.00;102292.73;106278;1251;60573;-82
2024/02/17 05:32:45;;;;;;;20.30;8.70;;;;;;;-3.90;100.00;102289.42;106199;1250;60448;-84
2024/02/17 05:35:11;;;;;;;13.70;8.10;;;;;;;-3.86;100.00;102290.89;106172;1255;73932;-86
2024/02/17 05:37:38;;;;;;;16.50;8.60;;;;;;;-3.80;100.00;102297.88;106237;1252;62536;-84
2024/02/17 05:40:07;;;;;;;19.80;7.90;;;;;;;-3.80;100.00;102298.58;106271;1251;72525;-83
2024/02/17 05:42:35;;;;;;;12.20;7.30;;;;;;;-3.82;100.00;102302.98;106322;1253;62008;-83
2024/02/17 05:45:02;;;;;;;14.00;8.30;;;;;;;-3.81;100.00;102297.88;106405;1249;60408;-84
2024/02/17 05:47:33;;;;;;;15.90;7.50;;;;;;;-3.68;100.00;102297.67;106361;1254;73886;-83
2024/02/17 05:50:00;;;;;;;14.50;7.00;;;;;;;-3.46;100.00;102298.23;106267;1250;63811;-82
2024/02/17 05:52:28;;;;;;;19.30;8.50;;;;;;;-3.20;100.00;102299.88;107082;1254;72523;-83
2024/02/17 05:54:55;;;;;;;14.30;7.50;;;;;;;-2.90;100.00;102302.47;106875;1254;61846;-82
2024/02/17 05:57:22;;;;;;;13.80;7.90;;;;;;;-2.55;100.00;102304.95;108588;1249;60430;-80
2024/02/17 05:59:50;;;;;;;15.90;6.70;;;;;;;-2.20;100.00;102300.19;109603;1249;72558;-81
2024/02/17 06:02:17;;;;;;;11.70;6.40;;;;;;;-1.72;100.00;102305.19;108507;1250;62844;-83
2024/02/17 06:04:44;;;;;;;14.30;6.90;;;;;;;-1.23;100.00;102308.60;107050;1249;70248;-83
2024/02/17 06:07:11;;;;;;;15.60;6.80;;;;;;;-0.76;100.00;102318.91;106380;1253;61189;-84
2024/02/17 06:09:38;;;;;;;11.70;6.40;;;;;;;-0.38;100.00;102326.14;107894;1253;60421;-82
2024/02/17 06:12:06;;;;;;;12.30;6.80;;;;;;;-0.04;100.00;102330.48;109254;1250;72409;-84
2024/02/17 06:14:33;;;;;;;13.70;6.00;;;;;;;0.40;100.00;102336.98;109488;1249;61609;-82
2024/02/17 06:17:07;;;;;;;15.20;7.30;;;;;;;0.90;100.00;102337.42;109704;1250;71159;-80
2024/02/17 06:22:19;;;;;;;16.30;7.40;;;;;;;2.29;100.00;102341.38;109872;1250;58941;-81
2024/02/17 06:24:46;;;;;;;14.30;7.80;;;;;;;2.85;100.00;102344.20;109877;1250;72445;-82
2024/02/17 06:27:14;;;;;;;12.70;7.10;;;;;;;3.40;93.22;102347.94;109568;1250;62306;-83
2024/02/17 06:29:44;;;;;;;14.50;7.40;;;;;;;3.92;85.48;102349.67;109638;1250;71270;-83
2024/02/17 06:32:11;;;;;;;13.90;7.10;;;;;;;4.46;79.35;102352.84;108574;1250;60398;-82
2024/02/17 06:34:41;;;;;;;13.00;7.00;;;;;;;4.95;71.31;102352.64;107690;1251;60436;-82
2024/02/17 06:37:08;;;;;;;11.70;6.60;;;;;;;5.28;65.55;102338.98;107605;1252;72648;-82
2024/02/17 06:39:36;;;;;;;10.40;7.00;;;;;;;5.40;63.03;102332.79;107840;1254;63018;-83
2024/02/17 06:42:03;;;;;;;16.20;8.50;;;;;;;5.36;62.50;102326.41;107758;1250;72711;-81
2024/02/17 06:44:31;;;;;;;17.90;7.70;;;;;;;5.08;61.32;102324.27;108398;1249;59197;-83
2024/02/17 06:46:58;;;;;;;14.50;8.50;;;;;;;4.56;61.86;102326.27;107664;1250;60453;-82
2024/02/17 06:49:25;;;;;;;20.00;8.60;;;;;;;3.95;64.10;102320.92;107228;1249;73841;-83
2024/02/17 06:51:54;;;;;;;18.70;8.20;;;;;;;3.41;64.05;102325.11;107764;1250;62649;-80
2024/02/17 06:54:22;;;;;;;13.40;8.40;;;;;;;2.84;66.12;102330.04;107420;1254;72648;-82
2024/02/17 06:56:49;;;;;;;12.70;7.30;;;;;;;2.35;69.74;102324.66;106512;1253;60421;-81
2024/02/17 06:59:16;;;;;;;18.40;9.40;;;;;;;1.97;72.42;102320.08;106641;1251;60524;-82
2024/02/17 07:01:43;;;;;;;17.20;8.50;;;;;;;1.59;75.22;102317.52;106976;1251;73809;-82
2024/02/17 07:04:10;;;;;;;19.40;9.40;;;;;;;1.23;76.45;102314.23;106462;1251;62799;-82
2024/02/17 07:06:37;;;;;;;29.10;8.60;;;;;;;0.86;79.89;102306.05;106365;1251;71489;-82
2024/02/17 07:09:06;;;;;;;17.90;8.70;;;;;;;0.49;84.28;102302.83;106196;1251;60639;-81
2024/02/17 07:11:33;;;;;;;15.60;9.80;;;;;;;0.23;89.32;102299.65;106709;1250;60431;-81
2024/02/17 07:13:59;;;;;;;19.50;9.70;;;;;;;0.10;95.38;102301.24;106565;1254;72761;-83
2024/02/17 07:16:26;;;;;;;25.60;11.30;;;;;;;0.04;97.36;102304.79;106186;1251;63764;-82
2024/02/17 07:18:57;;;;;;;23.90;9.70;;;;;;;-0.01;99.27;102304.56;106352;1254;72639;-85
2024/02/17 07:21:24;;;;;;;18.70;9.70;;;;;;;-0.08;99.33;102307.25;107000;1253;60536;-81
2024/02/17 07:23:51;;;;;;;21.40;10.60;;;;;;;-0.16;100.00;102310.06;106913;1250;60229;-81
2024/02/17 07:26:18;;;;;;;22.40;12.60;;;;;;;-0.21;100.00;102310.19;106733;1251;73883;-82
2024/02/17 07:28:47;;;;;;;21.10;12.40;;;;;;;-0.25;100.00;102308.08;106419;1250;63928;-82
2024/02/17 07:31:16;;;;;;;27.60;12.80;;;;;;;-0.28;100.00;102307.69;106656;1253;72696;-81
2024/02/17 07:33:46;;;;;;;33.10;14.30;;;;;;;-0.32;100.00;102306.27;106640;1253;60363;-81
2024/02/17 07:36:13;;;;;;;23.20;11.70;;;;;;;-0.35;100.00;102308.30;106527;1249;60427;-82
2024/02/17 07:38:40;;;;;;;24.70;11.20;;;;;;;-0.38;100.00;102306.38;106916;1252;73855;-84
2024/02/17 07:41:09;;;;;;;20.80;8.40;;;;;;;-0.42;100.00;102302.73;106851;1254;65974;-82
2024/02/17 07:43:59;;;;;;;20.90;10.80;;;;;;;-0.40;100.00;102299.81;106454;1251;72439;-82
2024/02/17 07:46:27;;;;;;;20.80;9.40;;;;;;;-0.44;100.00;102301.65;106492;1250;60622;-82
2024/02/17 07:48:57;;;;;;;17.20;8.20;;;;;;;-0.51;100.00;102301.91;106546;1250;60350;-84
2024/02/17 07:51:24;;;;;;;22.80;8.90;;;;;;;-0.56;100.00;102301.52;106832;1251;73832;-84
2024/02/17 07:53:57;;;;;;;17.10;8.80;;;;;;;-0.61;100.00;102300.92;107066;1251;63995;-84
2024/02/17 07:56:26;;;;;;;22.20;8.20;;;;;;;-0.63;100.00;102297.11;106940;1251;72085;-84
2024/02/17 07:58:56;;;;;;;17.00;8.00;;;;;;;-0.66;100.00;102305.14;107588;1253;60475;-83
2024/02/17 08:01:52;;;;;;;18.60;8.20;;;;;;;-0.76;100.00;102305.53;107170;1254;61770;-85
2024/02/17 08:04:29;;;;;;;31.00;7.80;;;;;;;-0.85;100.00;102302.48;106894;1249;76006;-83
2024/02/17 08:06:59;;;;;;;14.70;9.40;;;;;;;-0.92;100.00;102304.61;106989;1251;62614;-83
2024/02/17 08:09:28;;;;;;;16.50;7.40;;;;;;;-0.90;100.00;102304.63;106720;1250;71200;-84
2024/02/17 08:12:07;;;;;;;21.70;8.00;;;;;;;-0.91;100.00;102308.05;106988;1250;60450;-84
2024/02/17 08:14:56;;;;;;;14.90;8.50;;;;;;;-0.92;100.00;102307.70;107254;1249;60477;-84
2024/02/17 08:18:09;;;;;;;20.10;7.20;;;;;;;-0.83;100.00;102309.20;103086;1293;601088;-86
2024/02/17 08:20:56;;;;;;;;;;;;;;;-0.83;100.00;102307.66;105290;1268;59570;-84
2024/02/17 08:23:29;;;;;;;16.90;7.90;;;;;;;-0.82;100.00;102302.69;105942;1267;59231;-84
2024/02/17 08:26:11;;;;;;;16.50;8.80;;;;;;;-0.76;100.00;102297.62;105600;1270;70973;-83
2024/02/17 08:28:50;;;;;;;17.80;10.40;;;;;;;-0.71;100.00;102292.72;105315;1267;63449;-84
2024/02/17 08:31:53;;;;;;;19.40;8.80;;;;;;;-0.63;100.00;102288.19;103795;1256;3398212;-83
2024/02/17 08:35:17;;;;;;;91.20;42.70;;;;;;;-0.51;100.00;102287.66;106476;1256;59139;-83
2024/02/17 08:38:17;;;;;;;23.50;8.80;;;;;;;-0.43;100.00;102287.91;106824;1256;60339;-82
2024/02/17 08:41:19;;;;;;;27.30;10.70;;;;;;;-0.11;100.00;102286.41;106749;1256;72101;-83
2024/02/17 08:43:53;;;;;;;18.90;10.00;;;;;;;0.54;100.00;102283.41;105759;1256;65021;-82
2024/02/17 08:46:22;;;;;;;16.40;8.00;;;;;;;1.41;100.00;102279.34;105718;1256;71399;-84
2024/02/17 08:48:49;;;;;;;19.70;7.40;;;;;;;2.36;92.41;102281.33;105969;1257;59661;-81
2024/02/17 08:51:17;;;;;;;20.30;8.70;;;;;;;3.32;79.57;102278.29;105698;1256;60568;-84
2024/02/17 08:53:45;;;;;;;26.70;11.00;;;;;;;4.18;67.11;102275.80;105722;1256;73006;-84
2024/02/17 08:56:14;;;;;;;26.50;11.00;;;;;;;4.89;62.30;102272.27;106223;1256;62621;-83
2024/02/17 08:58:41;;;;;;;17.60;7.40;;;;;;;5.46;58.05;102276.88;106028;1261;73310;-83
2024/02/17 09:01:09;;;;;;;19.70;9.70;;;;;;;6.00;55.76;102272.70;105876;1256;59643;-84
2024/02/17 09:03:38;;;;;;;19.50;8.30;;;;;;;6.55;52.84;102275.70;106085;1252;59794;-83
2024/02/17 09:06:06;;;;;;;26.40;8.30;;;;;;;6.98;51.28;102272.52;106183;1252;72155;-83
2024/02/17 09:08:34;;;;;;;22.00;8.40;;;;;;;7.45;50.06;102269.52;106022;1252;63720;-82
2024/02/17 09:11:02;;;;;;;20.30;10.10;;;;;;;7.85;48.62;102270.08;106026;1252;71930;-83
2024/02/17 09:13:29;;;;;;;22.40;9.20;;;;;;;8.13;47.67;102264.92;106161;1253;60089;-84
2024/02/17 09:15:57;;;;;;;26.10;8.90;;;;;;;8.49;46.24;102262.16;106060;1253;59766;-83
2024/02/17 09:18:25;;;;;;;20.70;9.30;;;;;;;8.75;45.80;102258.73;106066;1253;71540;-85
2024/02/17 09:20:53;;;;;;;21.80;9.60;;;;;;;9.06;44.67;102258.41;106162;1252;62586;-81
2024/02/17 09:23:20;;;;;;;23.20;9.70;;;;;;;9.37;44.28;102258.94;106069;1252;71309;-85
2024/02/17 09:25:48;;;;;;;20.70;9.80;;;;;;;9.69;43.31;102256.11;106728;1252;60047;-84
2024/02/17 09:28:16;;;;;;;29.90;12.30;;;;;;;9.99;42.83;102253.63;106726;1252;59962;-83
2024/02/17 09:30:47;;;;;;;23.40;10.40;;;;;;;10.30;41.74;102259.47;106975;1252;72059;-83
2024/02/17 09:33:14;;;;;;;23.40;9.10;;;;;;;10.59;40.67;102248.21;107167;1252;63712;-82
2024/02/17 09:35:43;;;;;;;22.40;9.20;;;;;;;10.72;39.83;102247.39;107415;1252;71447;-84
2024/02/17 09:38:10;;;;;;;22.20;9.40;;;;;;;10.73;39.11;102249.48;107073;1252;60143;-82
2024/02/17 09:40:38;;;;;;;24.80;9.40;;;;;;;10.69;39.44;102248.40;106519;1252;59533;-82
2024/02/17 09:43:08;;;;;;;15.50;9.20;;;;;;;10.80;39.70;102245.21;107126;1252;72592;-82
2024/02/17 09:45:35;;;;;;;23.20;8.60;;;;;;;10.96;38.80;102241.69;107459;1252;62866;-83
2024/02/17 09:48:05;;;;;;;18.40;8.60;;;;;;;11.05;38.58;102237.86;106308;1253;70720;-83
2024/02/17 09:50:33;;;;;;;18.10;7.80;;;;;;;11.09;38.30;102238.94;105981;1253;59663;-82
2024/02/17 09:53:01;;;;;;;33.50;13.30;;;;;;;11.22;37.98;102240.91;106870;1252;59768;-85
2024/02/17 09:55:35;;;;;;;23.20;10.60;;;;;;;11.32;37.46;102232.15;107843;1252;70684;-85
2024/02/17 09:58:59;;;;;;;18.00;7.80;;;;;;;11.40;37.08;102226.92;109037;1252;61780;-83
2024/02/17 10:33:28;;;;;;;25.90;13.30;;;;;;;12.34;35.18;102181.53;103044;1288;600447;-84
2024/02/17 10:35:57;;;;;;;24.30;11.50;;;;;;;12.28;35.57;102179.46;105324;1271;59270;-83
2024/02/17 10:38:25;;;;;;;23.10;10.80;;;;;;;12.46;35.40;102181.55;105715;1271;59392;-84
2024/02/17 10:41:30;;;;;;;22.50;12.80;;;;;;;12.60;34.90;102180.24;102742;1292;600122;-83
2024/02/17 10:43:57;;;;;;;25.60;12.70;;;;;;;12.68;35.14;102177.45;105549;1266;60121;-84
2024/02/17 10:46:26;;;;;;;32.50;16.20;;;;;;;12.79;35.23;102172.21;105500;1267;60286;-82
2024/02/17 10:49:16;;;;;;;28.60;14.20;;;;;;;12.98;34.88;102171.88;105918;1267;71306;-84
2024/02/17 10:51:50;;;;;;;18.00;10.80;;;;;;;12.97;34.56;102170.16;106011;1272;62628;-84
2024/02/17 10:54:25;;;;;;;27.70;13.70;;;;;;;12.85;34.62;102167.21;106245;1252;214819;-83
2024/02/17 10:57:01;;;;;;;;;;;;;;;12.70;34.91;102165.06;107126;1256;59264;-85
2024/02/17 10:59:35;;;;;;;21.60;11.30;;;;;;;12.74;35.07;102161.20;106420;1254;60232;-83
2024/02/17 11:02:02;;;;;;;22.00;10.10;;;;;;;12.91;34.79;102163.43;106235;1259;74697;-85
2024/02/17 11:04:30;;;;;;;20.30;9.80;;;;;;;12.98;34.87;102162.39;106574;1257;63650;-83
2024/02/17 11:06:58;;;;;;;24.20;8.90;;;;;;;13.09;34.57;102160.86;106678;1256;72439;-84
2024/02/17 11:09:26;;;;;;;18.40;8.70;;;;;;;13.22;34.30;102160.44;106318;1254;60254;-83
2024/02/17 11:11:53;;;;;;;23.20;10.50;;;;;;;13.36;34.63;102162.98;106092;1257;59701;-83
2024/02/17 11:14:41;;;;;;;25.10;10.00;;;;;;;13.60;34.27;102165.52;106360;1257;73597;-82
2024/02/17 11:17:09;;;;;;;19.20;9.10;;;;;;;13.48;33.77;102163.98;106287;1256;64144;-83
2024/02/17 11:19:37;;;;;;;12.50;8.80;;;;;;;13.13;34.07;102163.48;106327;1254;70935;-82
2024/02/17 11:22:10;;;;;;;22.20;10.20;;;;;;;12.74;34.73;102161.02;106300;1256;60477;-82
2024/02/17 11:24:38;;;;;;;25.80;12.10;;;;;;;12.30;35.13;102161.34;106746;1254;61737;-82
2024/02/17 11:27:05;;;;;;;30.40;11.30;;;;;;;11.89;35.61;102157.27;106402;1254;73039;-82
2024/02/17 11:29:34;;;;;;;23.20;10.00;;;;;;;11.26;35.90;102157.25;106174;1256;63890;-78
2024/02/17 11:32:02;;;;;;;20.60;9.60;;;;;;;10.65;36.86;102153.89;106261;1257;72752;-81
2024/02/17 11:34:31;;;;;;;20.40;7.00;;;;;;;10.20;37.70;102158.08;106161;1254;59689;-81
2024/02/17 11:36:59;;;;;;;19.10;7.70;;;;;;;9.64;38.69;102153.23;106161;1256;59567;-83
2024/02/17 11:39:27;;;;;;;25.20;8.10;;;;;;;9.27;39.71;102152.45;106306;1254;73067;-82
2024/02/17 11:41:54;;;;;;;18.60;8.50;;;;;;;9.08;40.35;102154.56;106957;1253;63957;-83
2024/02/17 11:44:21;;;;;;;16.10;6.70;;;;;;;8.68;40.80;102151.32;108410;1253;71416;-79
2024/02/17 11:46:48;;;;;;;18.20;8.00;;;;;;;8.18;41.58;102151.02;108390;1256;60340;-78
2024/02/17 11:49:15;;;;;;;16.80;7.30;;;;;;;7.73;43.23;102146.04;107440;1252;60095;-81